sensor_id;sensor_type;location;lat;lon;timestamp;pressure;altitude;pressure_sealevel;temperature;humidity
7802;BME280;3945;48.952;9.506;2022-11-20T00:01:57;97441.06;;;6.30;95.69
7802;BME280;3945;48.952;9.506;2022-11-20T00:04:24;97431.75;;;6.27;94.96
7802;BME280;3945;48.952;9.506;2022-11-20T00:06:50;97437.28;;;6.26;95.71
7802;BME280;3945;48.952;9.506;2022-11-20T00:09:16;97431.75;;;6.27;95.52
7802;BME280;3945;48.952;9.506;2022-11-20T00:11:43;97432.56;;;6.28;95.20
7802;BME280;3945;48.952;9.506;2022-11-20T00:14:09;97437.84;;;6.28;95.73
7802;BME280;3945;48.952;9.506;2022-11-20T00:16:35;97437.41;;;6.31;96.59
7802;BME280;3945;48.952;9.506;2022-11-20T00:19:03;97436.00;;;6.28;95.65
7802;BME280;3945;48.952;9.506;2022-11-20T00:21:29;97433.38;;;6.28;96.01
7802;BME280;3945;48.952;9.506;2022-11-20T00:23:56;97433.16;;;6.30;96.17
7802;BME280;3945;48.952;9.506;2022-11-20T00:26:23;97429.25;;;6.33;96.56
7802;BME280;3945;48.952;9.506;2022-11-20T00:28:51;97423.72;;;6.34;96.19
7802;BME280;3945;48.952;9.506;2022-11-20T00:31:18;97420.88;;;6.36;96.18
7802;BME280;3945;48.952;9.506;2022-11-20T00:33:45;97424.53;;;6.35;96.34
7802;BME280;3945;48.952;9.506;2022-11-20T00:36:13;97429.59;;;6.36;96.56
7802;BME280;3945;48.952;9.506;2022-11-20T00:38:40;97427.75;;;6.37;96.90
7802;BME280;3945;48.952;9.506;2022-11-20T00:41:07;97425.72;;;6.39;96.62
7802;BME280;3945;48.952;9.506;2022-11-20T00:43:34;97422.47;;;6.37;95.99
7802;BME280;3945;48.952;9.506;2022-11-20T00:46:01;97426.38;;;6.34;96.50
7802;BME280;3945;48.952;9.506;2022-11-20T00:48:28;97423.50;;;6.36;95.93
7802;BME280;3945;48.952;9.506;2022-11-20T00:50:54;97428.78;;;6.36;96.30
7802;BME280;3945;48.952;9.506;2022-11-20T00:53:22;97434.06;;;6.36;96.37
7802;BME280;3945;48.952;9.506;2022-11-20T00:55:52;97436.72;;;6.36;96.22
7802;BME280;3945;48.952;9.506;2022-11-20T00:58:18;97442.81;;;6.36;96.32
7802;BME280;3945;48.952;9.506;2022-11-20T01:00:45;97445.22;;;6.38;96.70
7802;BME280;3945;48.952;9.506;2022-11-20T01:03:11;97439.94;;;6.38;96.58
7802;BME280;3945;48.952;9.506;2022-11-20T01:05:37;97442.59;;;6.38;95.82
7802;BME280;3945;48.952;9.506;2022-11-20T01:08:04;97445.22;;;6.38;96.37
7802;BME280;3945;48.952;9.506;2022-11-20T01:10:32;97441.44;;;6.34;96.18
7802;BME280;3945;48.952;9.506;2022-11-20T01:12:58;97435.34;;;6.33;96.46
7802;BME280;3945;48.952;9.506;2022-11-20T01:15:38;97446.72;;;6.34;95.85
7802;BME280;3945;48.952;9.506;2022-11-20T01:18:05;97434.53;;;6.33;96.51
7802;BME280;3945;48.952;9.506;2022-11-20T01:20:33;97436.38;;;6.32;96.56
7802;BME280;3945;48.952;9.506;2022-11-20T01:23:00;97437.19;;;6.33;97.23
7802;BME280;3945;48.952;9.506;2022-11-20T01:25:26;97444.31;;;6.32;96.60
7802;BME280;3945;48.952;9.506;2022-11-20T01:27:54;97448.56;;;6.33;96.82
7802;BME280;3945;48.952;9.506;2022-11-20T01:30:20;97447.97;;;6.31;96.20
7802;BME280;3945;48.952;9.506;2022-11-20T01:32:46;97449.59;;;6.32;96.96
7802;BME280;3945;48.952;9.506;2022-11-20T01:35:13;97459.13;;;6.33;96.15
7802;BME280;3945;48.952;9.506;2022-11-20T01:37:39;97453.94;;;6.26;96.61
7802;BME280;3945;48.952;9.506;2022-11-20T01:40:06;97452.06;;;6.27;96.16
7802;BME280;3945;48.952;9.506;2022-11-20T01:42:33;97449.91;;;6.24;96.60
7802;BME280;3945;48.952;9.506;2022-11-20T01:48:03;97446.66;;;6.22;96.74
7802;BME280;3945;48.952;9.506;2022-11-20T01:50:29;97444.41;;;6.25;97.77
7802;BME280;3945;48.952;9.506;2022-11-20T01:52:59;97441.50;;;6.27;96.60
7802;BME280;3945;48.952;9.506;2022-11-20T01:55:27;97445.75;;;6.28;97.09
7802;BME280;3945;48.952;9.506;2022-11-20T01:57:56;97444.75;;;6.29;96.31
7802;BME280;3945;48.952;9.506;2022-11-20T02:00:24;97442.56;;;6.26;96.47
7802;BME280;3945;48.952;9.506;2022-11-20T02:02:51;97441.38;;;6.22;95.90
7802;BME280;3945;48.952;9.506;2022-11-20T02:05:22;97444.25;;;6.20;96.39
7802;BME280;3945;48.952;9.506;2022-11-20T02:07:49;97434.50;;;6.21;96.90
7802;BME280;3945;48.952;9.506;2022-11-20T02:10:16;97435.50;;;6.20;96.82
7802;BME280;3945;48.952;9.506;2022-11-20T02:12:43;97439.34;;;6.24;97.47
7802;BME280;3945;48.952;9.506;2022-11-20T02:15:26;97436.69;;;6.24;97.17
7802;BME280;3945;48.952;9.506;2022-11-20T02:17:53;97429.34;;;6.26;97.46
7802;BME280;3945;48.952;9.506;2022-11-20T02:20:21;97431.75;;;6.27;97.68
7802;BME280;3945;48.952;9.506;2022-11-20T02:22:48;97435.19;;;6.28;97.84
7802;BME280;3945;48.952;9.506;2022-11-20T02:25:18;97443.94;;;6.28;97.35
7802;BME280;3945;48.952;9.506;2022-11-20T02:27:45;97441.06;;;6.30;98.34
7802;BME280;3945;48.952;9.506;2022-11-20T02:30:12;97442.69;;;6.31;97.79
7802;BME280;3945;48.952;9.506;2022-11-20T02:32:38;97442.47;;;6.33;97.46
7802;BME280;3945;48.952;9.506;2022-11-20T02:35:08;97438.81;;;6.34;98.32
7802;BME280;3945;48.952;9.506;2022-11-20T02:37:36;97432.13;;;6.31;97.98
7802;BME280;3945;48.952;9.506;2022-11-20T02:40:03;97429.81;;;6.35;98.43
7802;BME280;3945;48.952;9.506;2022-11-20T02:42:31;97440.97;;;6.37;97.40
7802;BME280;3945;48.952;9.506;2022-11-20T02:44:57;97438.13;;;6.38;97.89
7802;BME280;3945;48.952;9.506;2022-11-20T02:47:24;97435.25;;;6.40;98.00
7802;BME280;3945;48.952;9.506;2022-11-20T02:49:50;97430.78;;;6.40;98.07
7802;BME280;3945;48.952;9.506;2022-11-20T02:52:16;97434.78;;;6.43;97.75
7802;BME280;3945;48.952;9.506;2022-11-20T02:54:43;97430.31;;;6.43;97.33
7802;BME280;3945;48.952;9.506;2022-11-20T02:57:09;97428.03;;;6.47;97.43
7802;BME280;3945;48.952;9.506;2022-11-20T02:59:37;97434.13;;;6.47;97.81
7802;BME280;3945;48.952;9.506;2022-11-20T03:02:03;97432.28;;;6.48;97.93
7802;BME280;3945;48.952;9.506;2022-11-20T03:04:30;97432.28;;;6.48;97.81
7802;BME280;3945;48.952;9.506;2022-11-20T03:06:56;97435.97;;;6.47;97.27
7802;BME280;3945;48.952;9.506;2022-11-20T03:09:22;97423.56;;;6.47;97.34
7802;BME280;3945;48.952;9.506;2022-11-20T03:11:49;97430.09;;;6.45;97.91
7802;BME280;3945;48.952;9.506;2022-11-20T03:14:15;97431.47;;;6.47;97.35
7802;BME280;3945;48.952;9.506;2022-11-20T03:16:43;97427.44;;;6.45;97.68
7802;BME280;3945;48.952;9.506;2022-11-20T03:19:10;97425.38;;;6.47;98.32
7802;BME280;3945;48.952;9.506;2022-11-20T03:21:37;97424.34;;;6.48;98.27
7802;BME280;3945;48.952;9.506;2022-11-20T03:24:03;97428.84;;;6.47;98.57
7802;BME280;3945;48.952;9.506;2022-11-20T03:26:30;97424.91;;;6.50;98.23
7802;BME280;3945;48.952;9.506;2022-11-20T03:28:57;97427.56;;;6.50;98.00
7802;BME280;3945;48.952;9.506;2022-11-20T03:31:24;97416.19;;;6.49;97.84
7802;BME280;3945;48.952;9.506;2022-11-20T03:33:53;97414.13;;;6.51;98.15
7802;BME280;3945;48.952;9.506;2022-11-20T03:36:20;97420.44;;;6.50;98.14
7802;BME280;3945;48.952;9.506;2022-11-20T03:38:46;97415.75;;;6.52;98.24
7802;BME280;3945;48.952;9.506;2022-11-20T03:41:13;97420.22;;;6.52;97.79
7802;BME280;3945;48.952;9.506;2022-11-20T03:43:40;97417.13;;;6.55;97.02
7802;BME280;3945;48.952;9.506;2022-11-20T03:46:06;97414.50;;;6.55;97.09
7802;BME280;3945;48.952;9.506;2022-11-20T03:48:33;97416.31;;;6.54;97.76
7802;BME280;3945;48.952;9.506;2022-11-20T03:51:07;97415.28;;;6.55;97.32
7802;BME280;3945;48.952;9.506;2022-11-20T03:53:34;97411.84;;;6.55;97.61
7802;BME280;3945;48.952;9.506;2022-11-20T03:56:00;97408.63;;;6.53;98.16
7802;BME280;3945;48.952;9.506;2022-11-20T03:58:27;97407.81;;;6.52;97.40
7802;BME280;3945;48.952;9.506;2022-11-20T04:00:53;97419.41;;;6.51;97.52
7802;BME280;3945;48.952;9.506;2022-11-20T04:03:20;97415.97;;;6.51;98.15
7802;BME280;3945;48.952;9.506;2022-11-20T04:05:46;97411.47;;;6.51;98.24
7802;BME280;3945;48.952;9.506;2022-11-20T04:08:14;97420.81;;;6.54;98.50
7802;BME280;3945;48.952;9.506;2022-11-20T04:10:40;97415.03;;;6.57;98.40
7802;BME280;3945;48.952;9.506;2022-11-20T04:13:06;97415.84;;;6.57;97.27
7802;BME280;3945;48.952;9.506;2022-11-20T04:15:33;97408.94;;;6.56;96.70
7802;BME280;3945;48.952;9.506;2022-11-20T04:17:59;97406.19;;;6.51;93.73
7802;BME280;3945;48.952;9.506;2022-11-20T04:20:25;97407.09;;;6.45;94.06
7802;BME280;3945;48.952;9.506;2022-11-20T04:22:52;97396.97;;;6.42;93.61
7802;BME280;3945;48.952;9.506;2022-11-20T04:25:20;97397.88;;;6.36;93.55
7802;BME280;3945;48.952;9.506;2022-11-20T04:27:46;97400.53;;;6.36;93.38
7802;BME280;3945;48.952;9.506;2022-11-20T04:30:13;97396.97;;;6.31;94.15
7802;BME280;3945;48.952;9.506;2022-11-20T04:32:39;97394.75;;;6.27;94.36
7802;BME280;3945;48.952;9.506;2022-11-20T04:35:06;97405.00;;;6.24;94.42
7802;BME280;3945;48.952;9.506;2022-11-20T04:37:32;97400.16;;;6.21;95.80
7802;BME280;3945;48.952;9.506;2022-11-20T04:39:59;97394.88;;;6.21;95.40
7802;BME280;3945;48.952;9.506;2022-11-20T04:42:26;97400.41;;;6.19;95.62
7802;BME280;3945;48.952;9.506;2022-11-20T04:44:55;97399.34;;;6.20;94.60
7802;BME280;3945;48.952;9.506;2022-11-20T04:47:22;97399.34;;;6.20;95.55
7802;BME280;3945;48.952;9.506;2022-11-20T04:49:48;97400.97;;;6.21;95.75
7802;BME280;3945;48.952;9.506;2022-11-20T04:52:15;97410.97;;;6.19;96.63
7802;BME280;3945;48.952;9.506;2022-11-20T04:54:41;97413.34;;;6.21;96.92
7802;BME280;3945;48.952;9.506;2022-11-20T04:57:07;97397.28;;;6.22;97.51
7802;BME280;3945;48.952;9.506;2022-11-20T04:59:35;97402.69;;;6.27;96.71
7802;BME280;3945;48.952;9.506;2022-11-20T05:02:02;97404.53;;;6.27;97.58
7802;BME280;3945;48.952;9.506;2022-11-20T05:04:28;97397.78;;;6.31;95.79
7802;BME280;3945;48.952;9.506;2022-11-20T05:06:54;97399.81;;;6.29;95.11
7802;BME280;3945;48.952;9.506;2022-11-20T05:09:21;97406.13;;;6.28;94.21
7802;BME280;3945;48.952;9.506;2022-11-20T05:11:47;97399.50;;;6.25;95.37
7802;BME280;3945;48.952;9.506;2022-11-20T05:14:13;97390.97;;;6.23;95.33
7802;BME280;3945;48.952;9.506;2022-11-20T05:16:41;97405.00;;;6.24;95.46
7802;BME280;3945;48.952;9.506;2022-11-20T05:19:07;97399.72;;;6.24;94.10
7802;BME280;3945;48.952;9.506;2022-11-20T05:21:34;97406.03;;;6.23;94.26
7802;BME280;3945;48.952;9.506;2022-11-20T05:24:00;97406.72;;;6.18;93.51
7802;BME280;3945;48.952;9.506;2022-11-20T05:26:26;97399.81;;;6.17;92.04
7802;BME280;3945;48.952;9.506;2022-11-20T05:28:53;97403.69;;;6.15;92.21
7802;BME280;3945;48.952;9.506;2022-11-20T05:31:20;97397.38;;;6.16;93.90
7802;BME280;3945;48.952;9.506;2022-11-20T05:33:48;97403.09;;;6.13;93.91
7802;BME280;3945;48.952;9.506;2022-11-20T05:36:15;97392.53;;;6.13;94.39
7802;BME280;3945;48.952;9.506;2022-11-20T05:38:41;97399.09;;;6.10;93.71
7802;BME280;3945;48.952;9.506;2022-11-20T05:41:09;97406.81;;;6.12;94.50
7802;BME280;3945;48.952;9.506;2022-11-20T05:43:35;97397.25;;;6.11;94.52
7802;BME280;3945;48.952;9.506;2022-11-20T05:46:02;97401.28;;;6.13;94.67
7802;BME280;3945;48.952;9.506;2022-11-20T05:48:29;97398.88;;;6.12;94.22
7802;BME280;3945;48.952;9.506;2022-11-20T05:50:57;97393.34;;;6.13;94.65
7802;BME280;3945;48.952;9.506;2022-11-20T05:53:24;97392.09;;;6.16;94.05
7802;BME280;3945;48.952;9.506;2022-11-20T05:55:56;97392.09;;;6.16;92.99
7802;BME280;3945;48.952;9.506;2022-11-20T05:58:22;97402.66;;;6.16;93.99
7802;BME280;3945;48.952;9.506;2022-11-20T06:00:48;97394.97;;;6.14;92.42
7802;BME280;3945;48.952;9.506;2022-11-20T06:03:15;97394.16;;;6.14;93.94
7802;BME280;3945;48.952;9.506;2022-11-20T06:05:41;97392.09;;;6.16;92.25
7802;BME280;3945;48.952;9.506;2022-11-20T06:08:09;97388.06;;;6.13;93.20
7802;BME280;3945;48.952;9.506;2022-11-20T06:10:35;97397.59;;;6.14;93.64
7802;BME280;3945;48.952;9.506;2022-11-20T06:13:01;97391.06;;;6.17;93.07
7802;BME280;3945;48.952;9.506;2022-11-20T06:15:28;97385.56;;;6.18;92.73
7802;BME280;3945;48.952;9.506;2022-11-20T06:17:54;97395.78;;;6.15;91.22
7802;BME280;3945;48.952;9.506;2022-11-20T06:20:21;97387.03;;;6.14;92.17
7802;BME280;3945;48.952;9.506;2022-11-20T06:22:47;97384.88;;;6.11;91.76
7802;BME280;3945;48.952;9.506;2022-11-20T06:25:15;97391.72;;;6.12;91.69
7802;BME280;3945;48.952;9.506;2022-11-20T06:27:41;97391.28;;;6.15;92.36
7802;BME280;3945;48.952;9.506;2022-11-20T06:30:08;97387.03;;;6.14;91.77
7802;BME280;3945;48.952;9.506;2022-11-20T06:32:35;97386.00;;;6.15;91.67
7802;BME280;3945;48.952;9.506;2022-11-20T06:35:01;97393.13;;;6.15;92.98
7802;BME280;3945;48.952;9.506;2022-11-20T06:37:27;97385.22;;;6.15;92.55
7802;BME280;3945;48.952;9.506;2022-11-20T06:39:54;97385.22;;;6.15;91.75
7802;BME280;3945;48.952;9.506;2022-11-20T06:42:21;97401.06;;;6.15;92.71
7802;BME280;3945;48.952;9.506;2022-11-20T06:44:48;97395.56;;;6.16;92.42
7802;BME280;3945;48.952;9.506;2022-11-20T06:47:14;97392.09;;;6.16;92.53
7802;BME280;3945;48.952;9.506;2022-11-20T06:49:40;97392.22;;;6.21;91.42
7802;BME280;3945;48.952;9.506;2022-11-20T06:52:07;97397.50;;;6.21;91.06
7802;BME280;3945;48.952;9.506;2022-11-20T06:54:33;97403.03;;;6.19;91.64
7802;BME280;3945;48.952;9.506;2022-11-20T06:57:00;97394.06;;;6.20;92.68
7802;BME280;3945;48.952;9.506;2022-11-20T06:59:27;97393.03;;;6.21;92.66
7802;BME280;3945;48.952;9.506;2022-11-20T07:01:54;97403.38;;;6.23;91.94
7802;BME280;3945;48.952;9.506;2022-11-20T07:04:20;97403.16;;;6.24;91.84
7802;BME280;3945;48.952;9.506;2022-11-20T07:06:47;97402.34;;;6.24;91.94
7802;BME280;3945;48.952;9.506;2022-11-20T07:09:14;97394.75;;;6.27;91.28
7802;BME280;3945;48.952;9.506;2022-11-20T07:11:40;97391.91;;;6.29;91.59
7802;BME280;3945;48.952;9.506;2022-11-20T07:14:06;97398.81;;;6.30;91.91
7802;BME280;3945;48.952;9.506;2022-11-20T07:16:34;97389.84;;;6.31;91.03
7802;BME280;3945;48.952;9.506;2022-11-20T07:19:00;97400.19;;;6.33;90.25
7802;BME280;3945;48.952;9.506;2022-11-20T07:21:27;97404.44;;;6.34;90.65
7802;BME280;3945;48.952;9.506;2022-11-20T07:23:53;97405.47;;;6.33;91.51
7802;BME280;3945;48.952;9.506;2022-11-20T07:26:20;97406.28;;;6.33;90.76
7802;BME280;3945;48.952;9.506;2022-11-20T07:28:46;97411.00;;;6.43;93.28
7802;BME280;3945;48.952;9.506;2022-11-20T07:31:12;97411.16;;;6.48;93.01
7802;BME280;3945;48.952;9.506;2022-11-20T07:33:40;97414.13;;;6.51;92.35
7802;BME280;3945;48.952;9.506;2022-11-20T07:36:07;97415.28;;;6.55;92.30
7802;BME280;3945;48.952;9.506;2022-11-20T07:38:33;97416.44;;;6.59;92.05
7802;BME280;3945;48.952;9.506;2022-11-20T07:41:00;97414.38;;;6.61;91.25
7802;BME280;3945;48.952;9.506;2022-11-20T07:43:26;97420.69;;;6.60;91.50
7802;BME280;3945;48.952;9.506;2022-11-20T07:45:54;97421.72;;;6.59;91.85
7802;BME280;3945;48.952;9.506;2022-11-20T07:48:21;97425.19;;;6.60;92.44
7802;BME280;3945;48.952;9.506;2022-11-20T07:50:48;97425.19;;;6.60;92.23
7802;BME280;3945;48.952;9.506;2022-11-20T07:53:15;97427.81;;;6.60;93.48
7802;BME280;3945;48.952;9.506;2022-11-20T07:55:45;97425.88;;;6.55;93.23
7802;BME280;3945;48.952;9.506;2022-11-20T07:58:12;97436.44;;;6.55;93.89
7802;BME280;3945;48.952;9.506;2022-11-20T08:00:38;97440.91;;;6.55;93.55
7802;BME280;3945;48.952;9.506;2022-11-20T08:03:05;97428.50;;;6.55;93.66
7802;BME280;3945;48.952;9.506;2022-11-20T08:05:31;97428.50;;;6.55;93.79
7802;BME280;3945;48.952;9.506;2022-11-20T08:07:59;97436.88;;;6.52;93.57
7802;BME280;3945;48.952;9.506;2022-11-20T08:10:26;97435.50;;;6.50;93.74
7802;BME280;3945;48.952;9.506;2022-11-20T08:12:52;97433.31;;;6.47;95.09
7802;BME280;3945;48.952;9.506;2022-11-20T08:15:33;97438.59;;;6.47;95.34
7802;BME280;3945;48.952;9.506;2022-11-20T08:18:00;97437.78;;;6.46;95.35
7802;BME280;3945;48.952;9.506;2022-11-20T08:20:26;97434.34;;;6.46;95.48
7802;BME280;3945;48.952;9.506;2022-11-20T08:22:57;97432.34;;;6.41;95.74
7802;BME280;3945;48.952;9.506;2022-11-20T08:25:24;97435.38;;;6.45;96.55
7802;BME280;3945;48.952;9.506;2022-11-20T08:27:51;97430.91;;;6.45;94.13
7802;BME280;3945;48.952;9.506;2022-11-20T08:30:17;97437.66;;;6.41;95.28
7802;BME280;3945;48.952;9.506;2022-11-20T08:32:43;97445.81;;;6.40;94.72
7802;BME280;3945;48.952;9.506;2022-11-20T08:35:10;97433.63;;;6.39;95.12
7802;BME280;3945;48.952;9.506;2022-11-20T08:37:36;97444.22;;;6.39;94.65
7802;BME280;3945;48.952;9.506;2022-11-20T08:40:06;97442.59;;;6.38;95.34
7802;BME280;3945;48.952;9.506;2022-11-20T08:42:34;97436.28;;;6.39;95.33
7802;BME280;3945;48.952;9.506;2022-11-20T08:45:01;97446.63;;;6.40;95.31
7802;BME280;3945;48.952;9.506;2022-11-20T08:47:27;97446.63;;;6.40;95.38
7802;BME280;3945;48.952;9.506;2022-11-20T08:49:54;97447.78;;;6.44;95.70
7802;BME280;3945;48.952;9.506;2022-11-20T08:52:20;97452.03;;;6.45;95.43
7802;BME280;3945;48.952;9.506;2022-11-20T08:54:47;97460.19;;;6.44;95.74
7802;BME280;3945;48.952;9.506;2022-11-20T08:57:13;97462.81;;;6.44;96.23
7802;BME280;3945;48.952;9.506;2022-11-20T08:59:41;97456.28;;;6.46;96.77
7802;BME280;3945;48.952;9.506;2022-11-20T09:02:07;97446.31;;;6.48;95.80
7802;BME280;3945;48.952;9.506;2022-11-20T09:04:33;97454.47;;;6.47;96.09
7802;BME280;3945;48.952;9.506;2022-11-20T09:07:00;97458.47;;;6.49;96.41
7802;BME280;3945;48.952;9.506;2022-11-20T09:09:26;97448.69;;;6.50;96.35
7802;BME280;3945;48.952;9.506;2022-11-20T09:11:53;97448.69;;;6.50;96.82
7802;BME280;3945;48.952;9.506;2022-11-20T09:14:19;97454.78;;;6.50;96.58
7802;BME280;3945;48.952;9.506;2022-11-20T09:16:47;97462.72;;;6.50;97.55
7802;BME280;3945;48.952;9.506;2022-11-20T09:19:14;97463.91;;;6.54;97.46
7802;BME280;3945;48.952;9.506;2022-11-20T09:21:40;97464.72;;;6.55;98.27
7802;BME280;3945;48.952;9.506;2022-11-20T09:24:07;97471.59;;;6.56;97.94
7802;BME280;3945;48.952;9.506;2022-11-20T09:26:33;97473.56;;;6.60;98.19
7802;BME280;3945;48.952;9.506;2022-11-20T09:28:59;97470.44;;;6.63;97.96
7802;BME280;3945;48.952;9.506;2022-11-20T09:31:26;97472.06;;;6.64;98.22
7802;BME280;3945;48.952;9.506;2022-11-20T09:33:53;97475.28;;;6.66;98.11
7802;BME280;3945;48.952;9.506;2022-11-20T09:36:20;97471.03;;;6.65;98.53
7802;BME280;3945;48.952;9.506;2022-11-20T09:38:46;97465.53;;;6.67;98.90
7802;BME280;3945;48.952;9.506;2022-11-20T09:41:19;97461.16;;;6.73;98.26
7802;BME280;3945;48.952;9.506;2022-11-20T09:43:52;97474.38;;;6.73;98.92
7802;BME280;3945;48.952;9.506;2022-11-20T09:46:20;97469.09;;;6.73;98.50
7802;BME280;3945;48.952;9.506;2022-11-20T09:48:52;97477.84;;;6.73;99.05
7802;BME280;3945;48.952;9.506;2022-11-20T09:51:27;97490.38;;;6.78;98.69
7802;BME280;3945;48.952;9.506;2022-11-20T09:54:00;97495.44;;;6.79;99.12
7802;BME280;3945;48.952;9.506;2022-11-20T09:56:33;97487.16;;;6.76;99.13
7802;BME280;3945;48.952;9.506;2022-11-20T09:59:02;97486.69;;;6.79;99.02
7802;BME280;3945;48.952;9.506;2022-11-20T10:01:31;97484.63;;;6.81;98.62
7802;BME280;3945;48.952;9.506;2022-11-20T10:04:00;97477.28;;;6.83;98.78
7802;BME280;3945;48.952;9.506;2022-11-20T10:06:30;97480.75;;;6.83;98.20
7802;BME280;3945;48.952;9.506;2022-11-20T10:09:06;97476.00;;;6.85;97.65
7802;BME280;3945;48.952;9.506;2022-11-20T10:11:41;97468.88;;;6.86;97.96
7802;BME280;3945;48.952;9.506;2022-11-20T10:14:15;97472.56;;;6.85;97.83
7802;BME280;3945;48.952;9.506;2022-11-20T10:16:43;97468.88;;;6.86;97.91
7802;BME280;3945;48.952;9.506;2022-11-20T10:19:15;97468.44;;;6.89;97.97
7802;BME280;3945;48.952;9.506;2022-11-20T10:21:53;97460.28;;;6.90;97.49
7802;BME280;3945;48.952;9.506;2022-11-20T10:24:33;97462.34;;;6.88;98.18
7802;BME280;3945;48.952;9.506;2022-11-20T10:27:04;97466.38;;;6.91;98.17
7802;BME280;3945;48.952;9.506;2022-11-20T10:29:33;97465.09;;;6.93;98.55
7802;BME280;3945;48.952;9.506;2022-11-20T10:32:00;97459.59;;;6.95;98.87
7802;BME280;3945;48.952;9.506;2022-11-20T10:34:28;97462.22;;;6.95;99.23
7802;BME280;3945;48.952;9.506;2022-11-20T10:36:59;97464.88;;;6.95;99.80
7802;BME280;3945;48.952;9.506;2022-11-20T10:39:31;97470.16;;;6.95;99.99
7802;BME280;3945;48.952;9.506;2022-11-20T10:42:00;97474.22;;;6.97;99.76
7802;BME280;3945;48.952;9.506;2022-11-20T10:44:27;97465.56;;;7.02;99.93
7802;BME280;3945;48.952;9.506;2022-11-20T10:47:12;97451.09;;;7.04;100.00
7802;BME280;3945;48.952;9.506;2022-11-20T10:49:39;97458.56;;;7.07;99.12
7802;BME280;3945;48.952;9.506;2022-11-20T10:52:09;97464.53;;;7.03;99.45
7802;BME280;3945;48.952;9.506;2022-11-20T10:54:40;97475.13;;;7.03;98.70
7802;BME280;3945;48.952;9.506;2022-11-20T10:57:12;97468.22;;;7.02;98.99
7802;BME280;3945;48.952;9.506;2022-11-20T11:02:34;97468.22;;;7.02;99.12
7802;BME280;3945;48.952;9.506;2022-11-20T11:05:06;97468.56;;;7.05;99.01
7802;BME280;3945;48.952;9.506;2022-11-20T11:07:38;97461.19;;;7.07;99.73
7802;BME280;3945;48.952;9.506;2022-11-20T11:10:11;97453.84;;;7.10;99.41
7802;BME280;3945;48.952;9.506;2022-11-20T11:12:42;97456.25;;;7.11;99.69
7802;BME280;3945;48.952;9.506;2022-11-20T11:15:11;97463.72;;;7.14;99.55
7802;BME280;3945;48.952;9.506;2022-11-20T11:17:45;97446.59;;;7.17;99.66
7802;BME280;3945;48.952;9.506;2022-11-20T11:20:15;97464.31;;;7.16;99.71
7802;BME280;3945;48.952;9.506;2022-11-20T11:22:44;97456.72;;;7.20;98.82
7802;BME280;3945;48.952;9.506;2022-11-20T11:25:18;97448.78;;;7.20;98.79
7802;BME280;3945;48.952;9.506;2022-11-20T11:27:45;97440.28;;;7.18;98.29
7802;BME280;3945;48.952;9.506;2022-11-20T11:30:13;97438.66;;;7.17;97.78
7802;BME280;3945;48.952;9.506;2022-11-20T11:32:40;97447.31;;;7.12;96.96
7802;BME280;3945;48.952;9.506;2022-11-20T11:35:06;97439.59;;;7.11;97.39
7802;BME280;3945;48.952;9.506;2022-11-20T11:37:45;97433.81;;;7.14;96.47
7802;BME280;3945;48.952;9.506;2022-11-20T11:40:13;97432.44;;;7.11;96.63
7802;BME280;3945;48.952;9.506;2022-11-20T11:42:41;97439.34;;;7.12;96.65
7802;BME280;3945;48.952;9.506;2022-11-20T11:45:11;97430.13;;;7.15;98.28
7802;BME280;3945;48.952;9.506;2022-11-20T11:47:43;97425.66;;;7.15;97.51
7802;BME280;3945;48.952;9.506;2022-11-20T11:50:14;97430.72;;;7.17;97.78
7802;BME280;3945;48.952;9.506;2022-11-20T11:52:42;97420.94;;;7.17;97.17
7802;BME280;3945;48.952;9.506;2022-11-20T11:55:14;97422.06;;;7.21;98.28
7802;BME280;3945;48.952;9.506;2022-11-20T11:57:42;97421.72;;;7.29;98.47
7802;BME280;3945;48.952;9.506;2022-11-20T12:00:12;97415.19;;;7.32;98.46
7802;BME280;3945;48.952;9.506;2022-11-20T12:02:45;97416.56;;;7.34;97.94
7802;BME280;3945;48.952;9.506;2022-11-20T12:05:16;97417.00;;;7.43;99.00
7802;BME280;3945;48.952;9.506;2022-11-20T12:07:45;97405.72;;;7.48;97.83
7802;BME280;3945;48.952;9.506;2022-11-20T12:10:15;97410.88;;;7.54;98.25
7802;BME280;3945;48.952;9.506;2022-11-20T12:12:43;97400.06;;;7.56;97.62
7802;BME280;3945;48.952;9.506;2022-11-20T12:15:22;97408.31;;;7.59;97.39
7802;BME280;3945;48.952;9.506;2022-11-20T12:17:49;97403.03;;;7.59;97.18
7802;BME280;3945;48.952;9.506;2022-11-20T12:20:15;97403.63;;;7.61;97.49
7802;BME280;3945;48.952;9.506;2022-11-20T12:22:43;97396.47;;;7.62;96.81
7802;BME280;3945;48.952;9.506;2022-11-20T12:25:16;97391.50;;;7.65;97.95
7802;BME280;3945;48.952;9.506;2022-11-20T12:27:47;97388.41;;;7.68;97.16
7802;BME280;3945;48.952;9.506;2022-11-20T12:30:18;97392.75;;;7.74;97.12
7802;BME280;3945;48.952;9.506;2022-11-20T12:35:37;97387.53;;;8.08;95.23
7802;BME280;3945;48.952;9.506;2022-11-20T12:38:26;97402.25;;;8.15;89.24
7802;BME280;3945;48.952;9.506;2022-11-20T12:41:00;97387.78;;;8.06;86.32
7802;BME280;3945;48.952;9.506;2022-11-20T12:43:33;97405.75;;;8.04;86.03
7802;BME280;3945;48.952;9.506;2022-11-20T12:46:22;97400.13;;;8.01;87.57
7802;BME280;3945;48.952;9.506;2022-11-20T12:51:46;97399.84;;;8.14;87.18
7802;BME280;3945;48.952;9.506;2022-11-20T12:54:31;97398.91;;;8.20;86.84
7802;BME280;3945;48.952;9.506;2022-11-20T12:57:05;97400.25;;;8.22;87.28
7802;BME280;3945;48.952;9.506;2022-11-20T12:59:43;97402.09;;;8.22;87.03
7802;BME280;3945;48.952;9.506;2022-11-20T13:02:14;97396.56;;;8.23;88.22
7802;BME280;3945;48.952;9.506;2022-11-20T13:04:48;97380.72;;;8.29;86.11
7802;BME280;3945;48.952;9.506;2022-11-20T13:07:18;97390.50;;;8.40;87.27
7802;BME280;3945;48.952;9.506;2022-11-20T13:09:47;97393.47;;;8.43;86.80
7802;BME280;3945;48.952;9.506;2022-11-20T13:12:16;97383.19;;;8.47;87.18
7802;BME280;3945;48.952;9.506;2022-11-20T13:14:50;97386.09;;;8.45;86.33
7802;BME280;3945;48.952;9.506;2022-11-20T13:17:20;97386.66;;;8.47;85.57
7802;BME280;3945;48.952;9.506;2022-11-20T13:19:50;97385.06;;;8.46;82.34
7802;BME280;3945;48.952;9.506;2022-11-20T13:22:23;97379.97;;;8.45;83.24
7802;BME280;3945;48.952;9.506;2022-11-20T13:24:50;97381.81;;;8.44;83.73
7802;BME280;3945;48.952;9.506;2022-11-20T13:27:19;97376.78;;;8.43;81.79
7802;BME280;3945;48.952;9.506;2022-11-20T13:29:47;97377.91;;;8.47;82.48
7802;BME280;3945;48.952;9.506;2022-11-20T13:32:24;97364.06;;;8.45;81.50
7802;BME280;3945;48.952;9.506;2022-11-20T13:34:51;97370.59;;;8.54;79.28
7802;BME280;3945;48.952;9.506;2022-11-20T13:37:24;97372.84;;;8.62;79.03
7802;BME280;3945;48.952;9.506;2022-11-20T13:39:51;97366.63;;;8.73;77.35
7802;BME280;3945;48.952;9.506;2022-11-20T13:42:23;97379.19;;;8.78;77.63
7802;BME280;3945;48.952;9.506;2022-11-20T13:44:53;97360.13;;;8.81;77.00
7802;BME280;3945;48.952;9.506;2022-11-20T13:47:20;97362.28;;;8.84;77.81
7802;BME280;3945;48.952;9.506;2022-11-20T13:49:47;97361.72;;;8.82;77.38